Zion, Louisiana
Current Conditions -  °F | °C
As of 3:53 PM on Wednesday 28 Jan 2015 (Local Time) from KESF Reporting Station
Clear Clear  
Wind Chill: 72°   Ceiling: Unl
Heat Index: 72°   Visibility: 10mi
Dew Point: 42°   Wind: 8mph
Humidity: 34%   Direction: 200°SSW
Pressure: 30.16"   Gusts: NA
Location:  31.7323°N, 92.4245°W
Report Text: KESF 282153Z AUTO 20007KT 10SM CLR 22/06 A3016 RMK AO2 SLP213 T02220056
Loading
Personal Weather Stations






























Interactive Weather Map New forecast layout! Learn more

10-Day Weather Forecast

Advertisements
Track Severe Weather on mobile